sensor_id;sensor_type;location;lat;lon;timestamp;P1;durP1;ratioP1;P2;durP2;ratioP2
44145;SDS011;29809;52.432;4.780;2023-04-07T00:00:39;4.78;;;1.70;;
44145;SDS011;29809;52.432;4.780;2023-04-07T00:03:05;3.63;;;1.40;;
44145;SDS011;29809;52.432;4.780;2023-04-07T00:05:31;3.90;;;1.67;;
44145;SDS011;29809;52.432;4.780;2023-04-07T00:07:56;3.42;;;1.52;;
44145;SDS011;29809;52.432;4.780;2023-04-07T00:10:22;2.83;;;1.65;;
44145;SDS011;29809;52.432;4.780;2023-04-07T00:12:47;4.15;;;1.50;;
44145;SDS011;29809;52.432;4.780;2023-04-07T00:15:12;4.75;;;1.67;;
44145;SDS011;29809;52.432;4.780;2023-04-07T00:17:38;4.35;;;1.60;;
44145;SDS011;29809;52.432;4.780;2023-04-07T00:20:03;4.38;;;1.77;;
44145;SDS011;29809;52.432;4.780;2023-04-07T00:22:28;4.38;;;1.77;;
44145;SDS011;29809;52.432;4.780;2023-04-07T00:24:53;4.43;;;1.58;;
44145;SDS011;29809;52.432;4.780;2023-04-07T00:27:19;5.72;;;1.83;;
44145;SDS011;29809;52.432;4.780;2023-04-07T00:29:44;4.90;;;1.50;;
44145;SDS011;29809;52.432;4.780;2023-04-07T00:32:10;4.95;;;1.35;;
44145;SDS011;29809;52.432;4.780;2023-04-07T00:34:36;4.95;;;1.80;;
44145;SDS011;29809;52.432;4.780;2023-04-07T00:37:01;6.43;;;1.70;;
44145;SDS011;29809;52.432;4.780;2023-04-07T00:39:26;3.90;;;1.17;;
44145;SDS011;29809;52.432;4.780;2023-04-07T00:41:51;3.40;;;1.38;;
44145;SDS011;29809;52.432;4.780;2023-04-07T00:44:17;2.83;;;1.42;;
44145;SDS011;29809;52.432;4.780;2023-04-07T00:46:43;3.88;;;1.70;;
44145;SDS011;29809;52.432;4.780;2023-04-07T00:49:09;5.57;;;1.55;;
44145;SDS011;29809;52.432;4.780;2023-04-07T00:51:34;4.28;;;1.40;;
44145;SDS011;29809;52.432;4.780;2023-04-07T00:54:00;2.88;;;1.15;;
44145;SDS011;29809;52.432;4.780;2023-04-07T00:56:26;4.00;;;1.48;;
44145;SDS011;29809;52.432;4.780;2023-04-07T00:58:51;3.10;;;1.00;;
44145;SDS011;29809;52.432;4.780;2023-04-07T01:01:26;3.53;;;1.33;;
44145;SDS011;29809;52.432;4.780;2023-04-07T01:04:00;8.10;;;2.03;;
44145;SDS011;29809;52.432;4.780;2023-04-07T01:06:27;4.15;;;1.30;;
44145;SDS011;29809;52.432;4.780;2023-04-07T01:09:06;3.15;;;1.35;;
44145;SDS011;29809;52.432;4.780;2023-04-07T01:11:53;1.73;;;1.00;;
44145;SDS011;29809;52.432;4.780;2023-04-07T01:14:20;5.38;;;1.50;;
44145;SDS011;29809;52.432;4.780;2023-04-07T01:16:46;4.03;;;1.80;;
44145;SDS011;29809;52.432;4.780;2023-04-07T01:19:22;3.15;;;1.27;;
44145;SDS011;29809;52.432;4.780;2023-04-07T01:21:55;5.13;;;1.63;;
44145;SDS011;29809;52.432;4.780;2023-04-07T01:27:20;4.30;;;1.30;;
44145;SDS011;29809;52.432;4.780;2023-04-07T01:29:46;4.47;;;1.60;;
44145;SDS011;29809;52.432;4.780;2023-04-07T01:32:14;4.82;;;1.63;;
44145;SDS011;29809;52.432;4.780;2023-04-07T01:34:41;5.72;;;1.40;;
44145;SDS011;29809;52.432;4.780;2023-04-07T01:37:07;2.83;;;1.30;;
44145;SDS011;29809;52.432;4.780;2023-04-07T01:39:33;4.72;;;1.45;;
44145;SDS011;29809;52.432;4.780;2023-04-07T01:42:00;3.50;;;1.27;;
44145;SDS011;29809;52.432;4.780;2023-04-07T01:44:28;3.55;;;1.33;;
44145;SDS011;29809;52.432;4.780;2023-04-07T01:46:54;4.40;;;1.85;;
44145;SDS011;29809;52.432;4.780;2023-04-07T01:49:19;4.30;;;1.60;;
44145;SDS011;29809;52.432;4.780;2023-04-07T01:51:45;3.20;;;1.60;;
44145;SDS011;29809;52.432;4.780;2023-04-07T01:54:14;8.43;;;1.88;;
44145;SDS011;29809;52.432;4.780;2023-04-07T01:56:39;5.25;;;1.70;;
44145;SDS011;29809;52.432;4.780;2023-04-07T01:59:04;2.72;;;1.38;;
44145;SDS011;29809;52.432;4.780;2023-04-07T02:01:30;4.60;;;1.45;;
44145;SDS011;29809;52.432;4.780;2023-04-07T02:03:59;4.88;;;1.42;;
44145;SDS011;29809;52.432;4.780;2023-04-07T02:06:27;4.90;;;1.77;;
44145;SDS011;29809;52.432;4.780;2023-04-07T02:08:56;3.53;;;1.50;;
44145;SDS011;29809;52.432;4.780;2023-04-07T02:11:23;4.72;;;1.63;;
44145;SDS011;29809;52.432;4.780;2023-04-07T02:13:49;4.70;;;1.17;;
44145;SDS011;29809;52.432;4.780;2023-04-07T02:16:16;6.05;;;1.63;;
44145;SDS011;29809;52.432;4.780;2023-04-07T02:18:42;3.83;;;1.20;;
44145;SDS011;29809;52.432;4.780;2023-04-07T02:21:08;4.43;;;1.90;;
44145;SDS011;29809;52.432;4.780;2023-04-07T02:23:35;4.13;;;1.45;;
44145;SDS011;29809;52.432;4.780;2023-04-07T02:26:00;3.90;;;1.25;;
44145;SDS011;29809;52.432;4.780;2023-04-07T02:28:26;5.95;;;1.42;;
44145;SDS011;29809;52.432;4.780;2023-04-07T02:30:51;2.53;;;0.98;;
44145;SDS011;29809;52.432;4.780;2023-04-07T02:33:16;4.97;;;1.88;;
44145;SDS011;29809;52.432;4.780;2023-04-07T02:35:41;4.93;;;1.75;;
44145;SDS011;29809;52.432;4.780;2023-04-07T02:38:07;4.55;;;1.20;;
44145;SDS011;29809;52.432;4.780;2023-04-07T02:40:32;2.33;;;1.10;;
44145;SDS011;29809;52.432;4.780;2023-04-07T02:42:57;4.28;;;1.77;;
44145;SDS011;29809;52.432;4.780;2023-04-07T02:45:22;4.35;;;1.50;;
44145;SDS011;29809;52.432;4.780;2023-04-07T02:47:48;4.38;;;0.95;;
44145;SDS011;29809;52.432;4.780;2023-04-07T02:50:13;3.17;;;1.70;;
44145;SDS011;29809;52.432;4.780;2023-04-07T02:52:38;6.00;;;1.77;;
44145;SDS011;29809;52.432;4.780;2023-04-07T02:55:04;5.75;;;1.52;;
44145;SDS011;29809;52.432;4.780;2023-04-07T02:57:29;2.60;;;1.25;;
44145;SDS011;29809;52.432;4.780;2023-04-07T02:59:54;1.52;;;1.23;;
44145;SDS011;29809;52.432;4.780;2023-04-07T03:02:22;4.05;;;1.30;;
44145;SDS011;29809;52.432;4.780;2023-04-07T03:04:47;4.88;;;1.58;;
44145;SDS011;29809;52.432;4.780;2023-04-07T03:07:12;4.35;;;1.50;;
44145;SDS011;29809;52.432;4.780;2023-04-07T03:09:37;3.67;;;1.60;;
44145;SDS011;29809;52.432;4.780;2023-04-07T03:12:02;2.63;;;1.17;;
44145;SDS011;29809;52.432;4.780;2023-04-07T03:14:28;4.95;;;1.73;;
44145;SDS011;29809;52.432;4.780;2023-04-07T03:16:53;5.72;;;1.33;;
44145;SDS011;29809;52.432;4.780;2023-04-07T03:19:18;3.60;;;1.30;;
44145;SDS011;29809;52.432;4.780;2023-04-07T03:21:43;3.08;;;1.45;;
44145;SDS011;29809;52.432;4.780;2023-04-07T03:24:09;3.38;;;1.48;;
44145;SDS011;29809;52.432;4.780;2023-04-07T03:26:34;3.75;;;1.00;;
44145;SDS011;29809;52.432;4.780;2023-04-07T03:28:59;3.15;;;1.20;;
44145;SDS011;29809;52.432;4.780;2023-04-07T03:31:25;2.80;;;1.35;;
44145;SDS011;29809;52.432;4.780;2023-04-07T03:33:50;4.63;;;1.50;;
44145;SDS011;29809;52.432;4.780;2023-04-07T03:36:16;6.45;;;1.67;;
44145;SDS011;29809;52.432;4.780;2023-04-07T03:38:42;3.80;;;1.27;;
44145;SDS011;29809;52.432;4.780;2023-04-07T03:41:07;3.20;;;1.20;;
44145;SDS011;29809;52.432;4.780;2023-04-07T03:43:32;2.90;;;1.05;;
44145;SDS011;29809;52.432;4.780;2023-04-07T03:45:58;3.97;;;1.33;;
44145;SDS011;29809;52.432;4.780;2023-04-07T03:48:23;3.28;;;1.20;;
44145;SDS011;29809;52.432;4.780;2023-04-07T03:50:48;3.95;;;1.23;;
44145;SDS011;29809;52.432;4.780;2023-04-07T03:53:13;4.40;;;1.63;;
44145;SDS011;29809;52.432;4.780;2023-04-07T03:55:40;3.72;;;1.38;;
44145;SDS011;29809;52.432;4.780;2023-04-07T03:58:06;5.82;;;1.70;;
44145;SDS011;29809;52.432;4.780;2023-04-07T04:00:31;5.50;;;1.30;;
44145;SDS011;29809;52.432;4.780;2023-04-07T04:02:57;4.28;;;1.17;;
44145;SDS011;29809;52.432;4.780;2023-04-07T04:05:23;5.65;;;1.60;;
44145;SDS011;29809;52.432;4.780;2023-04-07T04:07:48;3.72;;;1.40;;
44145;SDS011;29809;52.432;4.780;2023-04-07T04:10:15;6.70;;;1.25;;
44145;SDS011;29809;52.432;4.780;2023-04-07T04:12:40;3.20;;;1.17;;
44145;SDS011;29809;52.432;4.780;2023-04-07T04:15:06;5.78;;;1.25;;
44145;SDS011;29809;52.432;4.780;2023-04-07T04:17:31;2.90;;;1.25;;
44145;SDS011;29809;52.432;4.780;2023-04-07T04:19:56;2.95;;;1.00;;
44145;SDS011;29809;52.432;4.780;2023-04-07T04:22:21;3.30;;;1.00;;
44145;SDS011;29809;52.432;4.780;2023-04-07T04:24:47;1.15;;;0.85;;
44145;SDS011;29809;52.432;4.780;2023-04-07T04:27:12;5.10;;;0.95;;
44145;SDS011;29809;52.432;4.780;2023-04-07T04:29:37;4.22;;;1.25;;
44145;SDS011;29809;52.432;4.780;2023-04-07T04:32:03;3.08;;;1.15;;
44145;SDS011;29809;52.432;4.780;2023-04-07T04:34:28;3.58;;;1.30;;
44145;SDS011;29809;52.432;4.780;2023-04-07T04:36:53;4.05;;;1.33;;
44145;SDS011;29809;52.432;4.780;2023-04-07T04:39:18;5.15;;;1.13;;
44145;SDS011;29809;52.432;4.780;2023-04-07T04:41:44;4.63;;;1.23;;
44145;SDS011;29809;52.432;4.780;2023-04-07T04:44:10;3.85;;;1.50;;
44145;SDS011;29809;52.432;4.780;2023-04-07T04:46:36;12.15;;;1.45;;
44145;SDS011;29809;52.432;4.780;2023-04-07T04:49:01;8.73;;;1.50;;
44145;SDS011;29809;52.432;4.780;2023-04-07T04:51:26;5.03;;;1.58;;
44145;SDS011;29809;52.432;4.780;2023-04-07T04:53:52;7.15;;;1.60;;
44145;SDS011;29809;52.432;4.780;2023-04-07T04:56:17;3.65;;;1.33;;
44145;SDS011;29809;52.432;4.780;2023-04-07T04:58:42;4.18;;;1.83;;
44145;SDS011;29809;52.432;4.780;2023-04-07T05:01:10;3.75;;;1.00;;
44145;SDS011;29809;52.432;4.780;2023-04-07T05:03:36;3.03;;;1.23;;
44145;SDS011;29809;52.432;4.780;2023-04-07T05:06:01;3.47;;;1.00;;
44145;SDS011;29809;52.432;4.780;2023-04-07T05:08:26;3.13;;;1.13;;
44145;SDS011;29809;52.432;4.780;2023-04-07T05:10:51;3.95;;;1.40;;
44145;SDS011;29809;52.432;4.780;2023-04-07T05:13:17;25.73;;;7.07;;
44145;SDS011;29809;52.432;4.780;2023-04-07T05:15:42;65.65;;;17.77;;
44145;SDS011;29809;52.432;4.780;2023-04-07T05:18:07;60.15;;;19.88;;
44145;SDS011;29809;52.432;4.780;2023-04-07T05:20:33;46.28;;;16.33;;
44145;SDS011;29809;52.432;4.780;2023-04-07T05:22:58;45.50;;;15.23;;
44145;SDS011;29809;52.432;4.780;2023-04-07T05:25:23;45.28;;;15.68;;
44145;SDS011;29809;52.432;4.780;2023-04-07T05:27:49;44.75;;;13.60;;
44145;SDS011;29809;52.432;4.780;2023-04-07T05:30:14;36.85;;;12.15;;
44145;SDS011;29809;52.432;4.780;2023-04-07T05:32:40;27.27;;;10.75;;
44145;SDS011;29809;52.432;4.780;2023-04-07T05:35:05;33.65;;;11.60;;
44145;SDS011;29809;52.432;4.780;2023-04-07T05:37:30;29.45;;;11.00;;
44145;SDS011;29809;52.432;4.780;2023-04-07T05:39:55;28.63;;;9.27;;
44145;SDS011;29809;52.432;4.780;2023-04-07T05:42:21;29.35;;;9.73;;
44145;SDS011;29809;52.432;4.780;2023-04-07T05:44:46;23.98;;;9.68;;
44145;SDS011;29809;52.432;4.780;2023-04-07T05:47:11;23.08;;;8.40;;
44145;SDS011;29809;52.432;4.780;2023-04-07T05:49:36;25.60;;;9.02;;
44145;SDS011;29809;52.432;4.780;2023-04-07T05:52:02;17.30;;;7.00;;
44145;SDS011;29809;52.432;4.780;2023-04-07T05:54:27;19.85;;;8.57;;
44145;SDS011;29809;52.432;4.780;2023-04-07T05:56:53;16.60;;;7.22;;
44145;SDS011;29809;52.432;4.780;2023-04-07T05:59:18;16.30;;;6.22;;
44145;SDS011;29809;52.432;4.780;2023-04-07T06:01:43;21.33;;;6.78;;
44145;SDS011;29809;52.432;4.780;2023-04-07T06:04:08;14.73;;;6.65;;
44145;SDS011;29809;52.432;4.780;2023-04-07T06:06:33;13.95;;;4.93;;
44145;SDS011;29809;52.432;4.780;2023-04-07T06:08:59;18.85;;;6.38;;
44145;SDS011;29809;52.432;4.780;2023-04-07T06:11:25;16.33;;;6.10;;
44145;SDS011;29809;52.432;4.780;2023-04-07T06:13:50;11.40;;;5.18;;
44145;SDS011;29809;52.432;4.780;2023-04-07T06:16:15;12.60;;;4.50;;
44145;SDS011;29809;52.432;4.780;2023-04-07T06:18:41;11.85;;;4.70;;
44145;SDS011;29809;52.432;4.780;2023-04-07T06:21:06;11.18;;;5.53;;
44145;SDS011;29809;52.432;4.780;2023-04-07T06:23:31;23.23;;;5.65;;
44145;SDS011;29809;52.432;4.780;2023-04-07T06:25:57;10.38;;;4.75;;
44145;SDS011;29809;52.432;4.780;2023-04-07T06:28:22;12.30;;;5.82;;
44145;SDS011;29809;52.432;4.780;2023-04-07T06:30:47;9.82;;;4.72;;
44145;SDS011;29809;52.432;4.780;2023-04-07T06:33:12;11.38;;;5.30;;
44145;SDS011;29809;52.432;4.780;2023-04-07T06:35:38;12.55;;;6.03;;
44145;SDS011;29809;52.432;4.780;2023-04-07T06:38:03;15.57;;;5.97;;
44145;SDS011;29809;52.432;4.780;2023-04-07T06:40:28;14.50;;;5.65;;
44145;SDS011;29809;52.432;4.780;2023-04-07T06:42:54;15.23;;;5.47;;
44145;SDS011;29809;52.432;4.780;2023-04-07T06:45:19;14.38;;;5.35;;
44145;SDS011;29809;52.432;4.780;2023-04-07T06:47:44;12.52;;;5.57;;
44145;SDS011;29809;52.432;4.780;2023-04-07T06:50:10;12.38;;;5.35;;
44145;SDS011;29809;52.432;4.780;2023-04-07T06:52:35;16.25;;;5.97;;
44145;SDS011;29809;52.432;4.780;2023-04-07T06:55:00;11.32;;;5.03;;
44145;SDS011;29809;52.432;4.780;2023-04-07T06:57:26;11.48;;;5.38;;
44145;SDS011;29809;52.432;4.780;2023-04-07T06:59:51;9.77;;;5.32;;
44145;SDS011;29809;52.432;4.780;2023-04-07T07:02:16;11.10;;;5.60;;
44145;SDS011;29809;52.432;4.780;2023-04-07T07:04:42;12.63;;;5.35;;
44145;SDS011;29809;52.432;4.780;2023-04-07T07:07:07;11.88;;;5.72;;
44145;SDS011;29809;52.432;4.780;2023-04-07T07:09:32;10.90;;;4.93;;
44145;SDS011;29809;52.432;4.780;2023-04-07T07:11:58;8.23;;;5.03;;
44145;SDS011;29809;52.432;4.780;2023-04-07T07:14:25;13.48;;;4.82;;
44145;SDS011;29809;52.432;4.780;2023-04-07T07:16:51;13.77;;;6.15;;
44145;SDS011;29809;52.432;4.780;2023-04-07T07:19:16;12.02;;;5.00;;
44145;SDS011;29809;52.432;4.780;2023-04-07T07:21:41;8.63;;;5.50;;
44145;SDS011;29809;52.432;4.780;2023-04-07T07:24:07;10.93;;;4.90;;
44145;SDS011;29809;52.432;4.780;2023-04-07T07:26:32;9.07;;;4.90;;
44145;SDS011;29809;52.432;4.780;2023-04-07T07:28:57;11.35;;;5.18;;
44145;SDS011;29809;52.432;4.780;2023-04-07T07:31:22;7.32;;;4.03;;
44145;SDS011;29809;52.432;4.780;2023-04-07T07:33:48;8.85;;;4.65;;
44145;SDS011;29809;52.432;4.780;2023-04-07T07:36:15;9.15;;;4.40;;
44145;SDS011;29809;52.432;4.780;2023-04-07T07:38:40;9.98;;;3.88;;
44145;SDS011;29809;52.432;4.780;2023-04-07T07:41:06;9.88;;;4.70;;
44145;SDS011;29809;52.432;4.780;2023-04-07T07:43:31;8.38;;;4.63;;
44145;SDS011;29809;52.432;4.780;2023-04-07T07:45:56;5.85;;;3.88;;
44145;SDS011;29809;52.432;4.780;2023-04-07T07:48:22;7.20;;;3.42;;
44145;SDS011;29809;52.432;4.780;2023-04-07T07:50:47;7.65;;;3.67;;
44145;SDS011;29809;52.432;4.780;2023-04-07T07:53:13;6.15;;;3.40;;
44145;SDS011;29809;52.432;4.780;2023-04-07T07:55:38;6.97;;;3.53;;
44145;SDS011;29809;52.432;4.780;2023-04-07T07:58:03;7.70;;;3.22;;
44145;SDS011;29809;52.432;4.780;2023-04-07T08:00:28;6.13;;;3.08;;
44145;SDS011;29809;52.432;4.780;2023-04-07T08:02:54;9.15;;;3.80;;
44145;SDS011;29809;52.432;4.780;2023-04-07T08:05:19;5.90;;;2.72;;
44145;SDS011;29809;52.432;4.780;2023-04-07T08:07:45;7.70;;;3.10;;
44145;SDS011;29809;52.432;4.780;2023-04-07T08:10:11;5.78;;;2.97;;
44145;SDS011;29809;52.432;4.780;2023-04-07T08:12:36;8.00;;;3.17;;
44145;SDS011;29809;52.432;4.780;2023-04-07T08:15:01;5.97;;;2.80;;
44145;SDS011;29809;52.432;4.780;2023-04-07T08:17:26;4.68;;;2.65;;
44145;SDS011;29809;52.432;4.780;2023-04-07T08:19:52;4.72;;;2.53;;
44145;SDS011;29809;52.432;4.780;2023-04-07T08:22:17;5.68;;;2.90;;
44145;SDS011;29809;52.432;4.780;2023-04-07T08:24:45;5.18;;;2.60;;
44145;SDS011;29809;52.432;4.780;2023-04-07T08:27:11;6.20;;;2.90;;
44145;SDS011;29809;52.432;4.780;2023-04-07T08:29:36;5.68;;;2.70;;
44145;SDS011;29809;52.432;4.780;2023-04-07T08:32:01;4.28;;;2.17;;
44145;SDS011;29809;52.432;4.780;2023-04-07T08:34:27;5.07;;;2.85;;
44145;SDS011;29809;52.432;4.780;2023-04-07T08:36:52;5.78;;;2.42;;
44145;SDS011;29809;52.432;4.780;2023-04-07T08:39:17;4.13;;;2.35;;
44145;SDS011;29809;52.432;4.780;2023-04-07T08:41:43;6.13;;;2.35;;
44145;SDS011;29809;52.432;4.780;2023-04-07T08:44:09;3.65;;;2.03;;
44145;SDS011;29809;52.432;4.780;2023-04-07T08:46:35;5.93;;;2.22;;
44145;SDS011;29809;52.432;4.780;2023-04-07T08:49:02;4.57;;;2.30;;
44145;SDS011;29809;52.432;4.780;2023-04-07T08:51:31;4.15;;;1.90;;
44145;SDS011;29809;52.432;4.780;2023-04-07T08:53:59;3.60;;;2.22;;
44145;SDS011;29809;52.432;4.780;2023-04-07T08:56:27;4.60;;;1.98;;
44145;SDS011;29809;52.432;4.780;2023-04-07T08:58:52;2.95;;;1.60;;
44145;SDS011;29809;52.432;4.780;2023-04-07T09:01:18;3.40;;;1.90;;
44145;SDS011;29809;52.432;4.780;2023-04-07T09:03:44;5.40;;;2.03;;
44145;SDS011;29809;52.432;4.780;2023-04-07T09:06:10;3.08;;;1.80;;
44145;SDS011;29809;52.432;4.780;2023-04-07T09:08:36;2.95;;;1.58;;
44145;SDS011;29809;52.432;4.780;2023-04-07T09:11:01;4.63;;;1.67;;
44145;SDS011;29809;52.432;4.780;2023-04-07T09:13:27;3.92;;;1.75;;
44145;SDS011;29809;52.432;4.780;2023-04-07T09:15:52;3.10;;;1.88;;
44145;SDS011;29809;52.432;4.780;2023-04-07T09:18:18;3.30;;;1.73;;
44145;SDS011;29809;52.432;4.780;2023-04-07T09:23:26;2.53;;;1.30;;
44145;SDS011;29809;52.432;4.780;2023-04-07T09:25:51;2.50;;;1.70;;
44145;SDS011;29809;52.432;4.780;2023-04-07T09:28:17;1.75;;;1.13;;
44145;SDS011;29809;52.432;4.780;2023-04-07T09:30:50;2.17;;;1.15;;
44145;SDS011;29809;52.432;4.780;2023-04-07T09:33:16;1.85;;;1.33;;
44145;SDS011;29809;52.432;4.780;2023-04-07T09:35:50;6.68;;;1.55;;
44145;SDS011;29809;52.432;4.780;2023-04-07T09:38:17;3.22;;;1.83;;
44145;SDS011;29809;52.432;4.780;2023-04-07T09:40:42;2.38;;;1.58;;
44145;SDS011;29809;52.432;4.780;2023-04-07T09:43:13;3.35;;;1.35;;
44145;SDS011;29809;52.432;4.780;2023-04-07T09:45:39;2.90;;;1.15;;
44145;SDS011;29809;52.432;4.780;2023-04-07T09:48:05;2.88;;;1.15;;
44145;SDS011;29809;52.432;4.780;2023-04-07T09:50:31;3.88;;;1.30;;
44145;SDS011;29809;52.432;4.780;2023-04-07T09:52:58;1.70;;;1.17;;
44145;SDS011;29809;52.432;4.780;2023-04-07T09:55:23;1.65;;;1.00;;
44145;SDS011;29809;52.432;4.780;2023-04-07T09:57:50;2.22;;;1.15;;
44145;SDS011;29809;52.432;4.780;2023-04-07T10:00:15;2.97;;;1.45;;
44145;SDS011;29809;52.432;4.780;2023-04-07T10:02:42;6.60;;;1.60;;
44145;SDS011;29809;52.432;4.780;2023-04-07T10:05:07;3.63;;;1.60;;
44145;SDS011;29809;52.432;4.780;2023-04-07T10:07:33;2.50;;;1.20;;
44145;SDS011;29809;52.432;4.780;2023-04-07T10:09:59;4.40;;;1.40;;
44145;SDS011;29809;52.432;4.780;2023-04-07T10:12:25;4.15;;;1.92;;
44145;SDS011;29809;52.432;4.780;2023-04-07T10:14:51;2.53;;;1.40;;
44145;SDS011;29809;52.432;4.780;2023-04-07T10:17:16;1.88;;;1.17;;
44145;SDS011;29809;52.432;4.780;2023-04-07T10:19:43;2.42;;;1.38;;
44145;SDS011;29809;52.432;4.780;2023-04-07T10:22:09;4.18;;;1.10;;
44145;SDS011;29809;52.432;4.780;2023-04-07T10:27:05;3.03;;;1.67;;
44145;SDS011;29809;52.432;4.780;2023-04-07T10:29:36;2.90;;;1.23;;
44145;SDS011;29809;52.432;4.780;2023-04-07T10:32:04;4.13;;;1.20;;
44145;SDS011;29809;52.432;4.780;2023-04-07T10:37:14;2.50;;;1.45;;
44145;SDS011;29809;52.432;4.780;2023-04-07T10:39:42;3.25;;;1.23;;
44145;SDS011;29809;52.432;4.780;2023-04-07T10:42:40;4.55;;;1.25;;
44145;SDS011;29809;52.432;4.780;2023-04-07T10:44:52;4.85;;;1.50;;
44145;SDS011;29809;52.432;4.780;2023-04-07T10:47:18;3.33;;;1.15;;
44145;SDS011;29809;52.432;4.780;2023-04-07T10:50:25;4.05;;;1.08;;
44145;SDS011;29809;52.432;4.780;2023-04-07T10:52:31;3.25;;;1.58;;
44145;SDS011;29809;52.432;4.780;2023-04-07T10:57:54;8.50;;;1.60;;
44145;SDS011;29809;52.432;4.780;2023-04-07T11:00:25;2.92;;;0.98;;
44145;SDS011;29809;52.432;4.780;2023-04-07T11:02:51;4.25;;;1.50;;
44145;SDS011;29809;52.432;4.780;2023-04-07T11:05:20;3.42;;;1.63;;
44145;SDS011;29809;52.432;4.780;2023-04-07T11:07:47;4.40;;;1.33;;
44145;SDS011;29809;52.432;4.780;2023-04-07T11:10:14;2.22;;;1.38;;
44145;SDS011;29809;52.432;4.780;2023-04-07T11:12:40;3.55;;;1.30;;
44145;SDS011;29809;52.432;4.780;2023-04-07T11:15:21;3.30;;;1.17;;
44145;SDS011;29809;52.432;4.780;2023-04-07T11:18:04;2.45;;;1.27;;
44145;SDS011;29809;52.432;4.780;2023-04-07T11:23:07;3.28;;;1.10;;
44145;SDS011;29809;52.432;4.780;2023-04-07T11:25:32;2.92;;;1.38;;
44145;SDS011;29809;52.432;4.780;2023-04-07T11:27:59;6.45;;;1.73;;
44145;SDS011;29809;52.432;4.780;2023-04-07T11:30:24;2.88;;;1.30;;
44145;SDS011;29809;52.432;4.780;2023-04-07T11:32:49;2.78;;;1.50;;
44145;SDS011;29809;52.432;4.780;2023-04-07T11:35:15;4.80;;;1.20;;
44145;SDS011;29809;52.432;4.780;2023-04-07T11:37:40;3.63;;;1.58;;
44145;SDS011;29809;52.432;4.780;2023-04-07T11:40:06;3.35;;;1.38;;
44145;SDS011;29809;52.432;4.780;2023-04-07T11:42:38;2.30;;;1.40;;
44145;SDS011;29809;52.432;4.780;2023-04-07T11:45:04;3.28;;;1.50;;
44145;SDS011;29809;52.432;4.780;2023-04-07T11:47:36;3.97;;;1.10;;
44145;SDS011;29809;52.432;4.780;2023-04-07T11:50:02;4.00;;;1.35;;
44145;SDS011;29809;52.432;4.780;2023-04-07T11:52:27;3.72;;;1.42;;
44145;SDS011;29809;52.432;4.780;2023-04-07T11:54:52;3.20;;;1.17;;
44145;SDS011;29809;52.432;4.780;2023-04-07T11:57:27;4.03;;;1.25;;
44145;SDS011;29809;52.432;4.780;2023-04-07T12:00:11;3.33;;;1.27;;
44145;SDS011;29809;52.432;4.780;2023-04-07T12:02:38;2.35;;;0.98;;
44145;SDS011;29809;52.432;4.780;2023-04-07T12:05:03;3.65;;;1.13;;
44145;SDS011;29809;52.432;4.780;2023-04-07T12:07:29;3.35;;;1.20;;
44145;SDS011;29809;52.432;4.780;2023-04-07T12:09:54;5.35;;;1.30;;
44145;SDS011;29809;52.432;4.780;2023-04-07T12:12:27;2.28;;;1.15;;
44145;SDS011;29809;52.432;4.780;2023-04-07T12:14:53;5.40;;;1.55;;
44145;SDS011;29809;52.432;4.780;2023-04-07T12:17:22;3.10;;;1.60;;
44145;SDS011;29809;52.432;4.780;2023-04-07T12:19:47;4.00;;;1.02;;
44145;SDS011;29809;52.432;4.780;2023-04-07T12:22:13;3.35;;;1.63;;
44145;SDS011;29809;52.432;4.780;2023-04-07T12:24:38;5.03;;;1.20;;
44145;SDS011;29809;52.432;4.780;2023-04-07T12:27:03;5.65;;;1.48;;
44145;SDS011;29809;52.432;4.780;2023-04-07T12:29:28;5.22;;;1.20;;
44145;SDS011;29809;52.432;4.780;2023-04-07T12:31:54;3.88;;;1.52;;
44145;SDS011;29809;52.432;4.780;2023-04-07T12:34:20;5.18;;;1.10;;
44145;SDS011;29809;52.432;4.780;2023-04-07T12:36:45;4.28;;;1.38;;
44145;SDS011;29809;52.432;4.780;2023-04-07T12:39:10;2.20;;;1.65;;
44145;SDS011;29809;52.432;4.780;2023-04-07T12:41:36;3.25;;;1.38;;
44145;SDS011;29809;52.432;4.780;2023-04-07T12:44:02;3.88;;;1.35;;
44145;SDS011;29809;52.432;4.780;2023-04-07T12:46:28;4.75;;;1.45;;
44145;SDS011;29809;52.432;4.780;2023-04-07T12:48:53;2.90;;;1.02;;
44145;SDS011;29809;52.432;4.780;2023-04-07T12:51:18;1.88;;;1.02;;
44145;SDS011;29809;52.432;4.780;2023-04-07T12:53:43;3.92;;;1.38;;
44145;SDS011;29809;52.432;4.780;2023-04-07T12:56:09;2.10;;;1.00;;
44145;SDS011;29809;52.432;4.780;2023-04-07T12:58:34;4.68;;;1.30;;
44145;SDS011;29809;52.432;4.780;2023-04-07T13:01:00;3.17;;;1.13;;
44145;SDS011;29809;52.432;4.780;2023-04-07T13:03:25;3.92;;;1.30;;
44145;SDS011;29809;52.432;4.780;2023-04-07T13:05:50;3.13;;;1.30;;
44145;SDS011;29809;52.432;4.780;2023-04-07T13:08:18;4.22;;;1.35;;
44145;SDS011;29809;52.432;4.780;2023-04-07T13:10:43;2.00;;;1.30;;
44145;SDS011;29809;52.432;4.780;2023-04-07T13:13:08;4.47;;;1.23;;
44145;SDS011;29809;52.432;4.780;2023-04-07T13:15:33;3.47;;;1.70;;
44145;SDS011;29809;52.432;4.780;2023-04-07T13:17:59;1.52;;;0.85;;
44145;SDS011;29809;52.432;4.780;2023-04-07T13:20:24;3.67;;;1.38;;
44145;SDS011;29809;52.432;4.780;2023-04-07T13:22:52;4.78;;;1.25;;
44145;SDS011;29809;52.432;4.780;2023-04-07T13:25:17;4.00;;;1.10;;
44145;SDS011;29809;52.432;4.780;2023-04-07T13:27:42;3.28;;;1.10;;
44145;SDS011;29809;52.432;4.780;2023-04-07T13:30:08;3.10;;;1.50;;
44145;SDS011;29809;52.432;4.780;2023-04-07T13:32:33;3.22;;;1.42;;
44145;SDS011;29809;52.432;4.780;2023-04-07T13:34:58;2.88;;;1.50;;
44145;SDS011;29809;52.432;4.780;2023-04-07T13:37:24;3.05;;;1.02;;
44145;SDS011;29809;52.432;4.780;2023-04-07T13:39:49;3.08;;;1.20;;
44145;SDS011;29809;52.432;4.780;2023-04-07T13:42:15;2.80;;;1.20;;
44145;SDS011;29809;52.432;4.780;2023-04-07T13:44:44;4.65;;;1.30;;
44145;SDS011;29809;52.432;4.780;2023-04-07T13:47:11;5.47;;;1.40;;
44145;SDS011;29809;52.432;4.780;2023-04-07T13:49:38;2.83;;;1.15;;
44145;SDS011;29809;52.432;4.780;2023-04-07T13:52:04;2.67;;;1.05;;
44145;SDS011;29809;52.432;4.780;2023-04-07T13:54:29;4.65;;;0.90;;
44145;SDS011;29809;52.432;4.780;2023-04-07T13:56:55;3.53;;;1.60;;
44145;SDS011;29809;52.432;4.780;2023-04-07T13:59:20;3.22;;;1.20;;
44145;SDS011;29809;52.432;4.780;2023-04-07T14:01:45;3.83;;;1.20;;
44145;SDS011;29809;52.432;4.780;2023-04-07T14:04:10;3.75;;;1.23;;
44145;SDS011;29809;52.432;4.780;2023-04-07T14:06:36;3.25;;;1.40;;
44145;SDS011;29809;52.432;4.780;2023-04-07T14:09:02;4.35;;;1.50;;
44145;SDS011;29809;52.432;4.780;2023-04-07T14:11:27;3.72;;;1.60;;
44145;SDS011;29809;52.432;4.780;2023-04-07T14:13:53;3.38;;;1.83;;
44145;SDS011;29809;52.432;4.780;2023-04-07T14:16:19;3.65;;;1.65;;
44145;SDS011;29809;52.432;4.780;2023-04-07T14:18:44;4.90;;;1.17;;
44145;SDS011;29809;52.432;4.780;2023-04-07T14:21:10;3.20;;;1.63;;
44145;SDS011;29809;52.432;4.780;2023-04-07T14:23:36;4.72;;;1.55;;
44145;SDS011;29809;52.432;4.780;2023-04-07T14:26:01;1.80;;;1.27;;
44145;SDS011;29809;52.432;4.780;2023-04-07T14:28:27;1.83;;;1.42;;
44145;SDS011;29809;52.432;4.780;2023-04-07T14:30:52;3.60;;;1.45;;
44145;SDS011;29809;52.432;4.780;2023-04-07T14:33:18;2.22;;;1.33;;
44145;SDS011;29809;52.432;4.780;2023-04-07T14:35:44;3.50;;;1.30;;
44145;SDS011;29809;52.432;4.780;2023-04-07T14:38:09;2.80;;;1.27;;
44145;SDS011;29809;52.432;4.780;2023-04-07T14:40:35;5.78;;;1.92;;
44145;SDS011;29809;52.432;4.780;2023-04-07T14:43:00;3.17;;;1.33;;
44145;SDS011;29809;52.432;4.780;2023-04-07T14:45:26;2.67;;;1.27;;
44145;SDS011;29809;52.432;4.780;2023-04-07T14:47:51;5.88;;;1.90;;
44145;SDS011;29809;52.432;4.780;2023-04-07T14:50:16;4.40;;;1.42;;
44145;SDS011;29809;52.432;4.780;2023-04-07T14:52:42;3.67;;;1.42;;
44145;SDS011;29809;52.432;4.780;2023-04-07T14:55:08;3.30;;;1.63;;